Time;durP1;ratioP1;P1;durP2;ratioP2;P2;SDS_P1;SDS_P2;PMS_P1;PMS_P2;Temp;Humidity;BMP_temperature;BMP_pressure;BME280_temperature;BME280_humidity;BME280_pressure;Samples;Min_cycle;Max_cycle;Signal;HPM_P1;HPM_P2
2022/01/08 09:28:28;;;;;;;37.00;4.60;;;7.70;99.10;;;;;;5059586;28;20449;-52
2022/01/08 09:30:54;;;;;;;33.47;5.03;;;7.70;99.10;;;;;;5051848;28;20037;-46
2022/01/08 09:33:24;;;;;;;35.55;5.13;;;7.80;99.00;;;;;;5048826;28;20404;-47
2022/01/08 09:35:50;;;;;;;33.95;5.20;;;7.80;99.00;;;;;;5053559;28;20041;-48
2022/01/08 09:38:17;;;;;;;27.95;4.70;;;7.90;98.60;;;;;;5049924;28;20049;-47
2022/01/08 09:40:49;;;;;;;23.40;5.03;;;8.00;98.40;;;;;;5050108;28;20045;-53
2022/01/08 09:43:15;;;;;;;28.73;4.38;;;8.10;98.20;;;;;;5048623;28;20049;-48
2022/01/08 09:45:42;;;;;;;26.80;5.25;;;8.10;98.10;;;;;;5049942;28;20056;-47
2022/01/08 09:48:09;;;;;;;26.75;4.53;;;8.20;98.00;;;;;;5049729;28;20051;-47
2022/01/08 09:50:36;;;;;;;30.55;4.78;;;8.20;97.90;;;;;;5049733;28;20052;-48
2022/01/08 09:53:03;;;;;;;24.73;4.22;;;8.30;97.90;;;;;;5051950;28;20469;-48
2022/01/08 09:55:30;;;;;;;25.17;4.45;;;8.30;97.80;;;;;;5049589;28;20082;-48
2022/01/08 09:57:57;;;;;;;24.42;4.10;;;8.30;97.70;;;;;;5049479;28;20458;-48
2022/01/08 10:00:24;;;;;;;21.58;4.00;;;8.40;97.70;;;;;;5049568;28;20033;-52
2022/01/08 10:02:51;;;;;;;26.50;3.78;;;8.50;97.60;;;;;;5049288;28;20041;-46
2022/01/08 10:05:18;;;;;;;23.50;4.88;;;8.50;97.60;;;;;;5049325;28;20173;-49
2022/01/08 10:07:44;;;;;;;23.35;4.60;;;8.50;97.50;;;;;;5049153;28;20041;-47
2022/01/08 10:10:15;;;;;;;22.83;4.10;;;8.50;97.50;;;;;;5049397;28;20045;-48
2022/01/08 10:12:44;;;;;;;29.55;4.45;;;8.50;97.50;;;;;;5049340;28;20515;-52
2022/01/08 10:17:56;;;;;;;18.10;3.75;;;8.60;97.50;;;;;;5048959;28;20037;-48
2022/01/08 10:20:23;;;;;;;16.33;2.83;;;8.60;97.40;;;;;;5048908;28;20042;-49
2022/01/08 10:22:50;;;;;;;16.67;3.22;;;8.60;97.40;;;;;;5048399;28;20038;-48
2022/01/08 10:25:22;;;;;;;21.35;4.00;;;8.70;97.40;;;;;;5048888;28;20477;-47
2022/01/08 10:27:48;;;;;;;15.25;3.65;;;8.70;97.50;;;;;;5046559;28;20057;-51
2022/01/08 10:30:15;;;;;;;12.85;2.83;;;8.70;97.50;;;;;;5053523;28;20033;-52
2022/01/08 10:32:42;;;;;;;14.57;2.47;;;8.70;97.50;;;;;;5048549;28;20037;-50
2022/01/08 10:35:09;;;;;;;13.40;2.75;;;8.70;97.50;;;;;;5048523;28;20075;-49
2022/01/08 10:37:35;;;;;;;17.08;2.08;;;8.70;97.50;;;;;;5047503;28;20041;-45
2022/01/08 10:40:02;;;;;;;13.13;2.25;;;8.70;97.50;;;;;;5034733;28;20045;-52
2022/01/08 10:42:29;;;;;;;12.57;2.15;;;8.70;97.50;;;;;;5033849;28;20432;-51
2022/01/08 10:44:56;;;;;;;12.27;3.28;;;8.70;97.60;;;;;;5035028;28;20037;-47
2022/01/08 10:47:23;;;;;;;9.20;1.98;;;8.70;97.70;;;;;;5034669;28;20034;-48
2022/01/08 10:49:49;;;;;;;10.07;1.90;;;8.70;97.60;;;;;;5034211;28;20054;-49
2022/01/08 10:52:16;;;;;;;10.48;2.05;;;8.80;97.60;;;;;;5042189;28;20037;-47
2022/01/08 10:54:46;;;;;;;7.00;1.70;;;8.80;97.60;;;;;;5034447;28;20045;-48
2022/01/08 10:57:14;;;;;;;7.45;1.88;;;8.80;97.60;;;;;;5034767;28;20103;-50
2022/01/08 10:59:41;;;;;;;9.10;1.52;;;8.80;97.70;;;;;;5034707;28;20051;-51
2022/01/08 11:02:07;;;;;;;7.95;2.00;;;8.80;97.60;;;;;;5034659;28;20519;-48
2022/01/08 11:04:34;;;;;;;9.70;2.15;;;8.90;97.70;;;;;;5034672;28;20373;-52
2022/01/08 11:07:01;;;;;;;11.07;2.33;;;8.90;97.70;;;;;;5034291;28;20057;-49
2022/01/08 11:09:28;;;;;;;7.03;1.55;;;8.90;97.60;;;;;;5034591;28;20437;-48
2022/01/08 11:11:55;;;;;;;10.63;2.03;;;8.90;97.70;;;;;;5034619;28;20041;-49
2022/01/08 11:14:44;;;;;;;10.55;2.38;;;9.00;97.70;;;;;;5034558;28;20041;-48
2022/01/08 11:17:09;;;;;;;10.07;2.22;;;9.00;97.70;;;;;;5036608;28;20136;-49
2022/01/08 11:19:36;;;;;;;10.60;2.38;;;9.00;97.70;;;;;;5037428;28;20042;-47
2022/01/08 11:22:03;;;;;;;12.48;2.20;;;9.00;97.60;;;;;;5039896;28;20045;-48
2022/01/08 11:24:29;;;;;;;11.55;2.65;;;9.10;97.50;;;;;;5034783;28;20060;-48
2022/01/08 11:26:56;;;;;;;14.93;2.65;;;9.10;97.60;;;;;;5032564;28;20068;-49
2022/01/08 11:29:23;;;;;;;12.60;2.35;;;9.10;97.60;;;;;;5037964;28;20041;-50
2022/01/08 11:31:50;;;;;;;13.45;2.75;;;9.10;97.70;;;;;;5034044;28;20041;-48
2022/01/08 11:34:18;;;;;;;14.90;2.80;;;9.10;97.60;;;;;;5031620;28;20471;-49
2022/01/08 11:36:48;;;;;;;14.32;2.45;;;9.10;97.70;;;;;;5033449;28;20515;-48
2022/01/08 11:39:15;;;;;;;13.52;2.42;;;9.20;97.70;;;;;;5033256;28;20565;-49
2022/01/08 11:41:41;;;;;;;10.45;2.35;;;9.20;97.70;;;;;;5038771;28;20045;-47
2022/01/08 11:44:08;;;;;;;16.73;3.20;;;9.20;97.80;;;;;;5033811;28;20565;-48
2022/01/08 11:46:37;;;;;;;9.75;2.60;;;9.20;97.70;;;;;;5032547;28;20091;-50
2022/01/08 11:49:03;;;;;;;11.00;2.60;;;9.20;97.70;;;;;;5036091;28;20088;-54
2022/01/08 11:51:31;;;;;;;11.43;2.15;;;9.30;97.70;;;;;;5032891;28;20042;-50
2022/01/08 11:53:58;;;;;;;11.32;2.30;;;9.30;97.80;;;;;;5032544;28;20060;-50
2022/01/08 19:27:42;;;;;;;38.47;8.63;;;7.20;94.20;;;;;;5130604;27;20383;-57
2022/01/08 19:30:09;;;;;;;31.33;6.65;;;7.10;94.00;;;;;;5112133;27;20036;-49
2022/01/08 19:32:36;;;;;;;33.28;8.43;;;7.20;93.20;;;;;;5115345;28;20044;-47
2022/01/08 19:35:03;;;;;;;39.20;7.55;;;7.20;93.80;;;;;;5110338;28;20039;-48
2022/01/08 19:37:29;;;;;;;28.00;6.20;;;7.20;93.50;;;;;;5109849;28;20042;-47
2022/01/08 19:39:56;;;;;;;33.75;7.57;;;7.20;93.60;;;;;;5108807;28;20040;-49
2022/01/08 19:42:24;;;;;;;28.92;6.22;;;7.20;92.70;;;;;;5110143;28;20117;-50
2022/01/08 19:44:50;;;;;;;32.10;7.07;;;7.30;92.40;;;;;;5110172;28;20483;-47
2022/01/08 19:47:17;;;;;;;28.55;8.20;;;7.30;92.70;;;;;;5109934;28;20040;-45
2022/01/08 19:49:44;;;;;;;34.17;8.73;;;7.20;93.00;;;;;;5110517;28;20040;-49
2022/01/08 19:52:12;;;;;;;33.85;6.20;;;7.20;92.50;;;;;;5110717;28;20113;-50
2022/01/08 19:54:39;;;;;;;28.23;6.78;;;7.20;92.00;;;;;;5109917;28;20119;-48
2022/01/08 19:57:12;;;;;;;27.70;5.57;;;7.20;92.30;;;;;;5109972;28;20368;-48
2022/01/08 19:59:39;;;;;;;26.33;6.68;;;7.20;92.10;;;;;;5114917;28;20462;-50
2022/01/08 20:02:06;;;;;;;27.52;5.70;;;7.20;91.90;;;;;;5113043;28;20039;-47
2022/01/08 20:04:33;;;;;;;25.80;5.43;;;7.20;91.20;;;;;;5110132;28;20054;-47
2022/01/08 20:07:00;;;;;;;30.85;7.88;;;7.20;90.90;;;;;;5108629;28;20044;-46
2022/01/08 20:09:31;;;;;;;27.38;7.40;;;7.20;90.40;;;;;;5108772;28;20043;-49
2022/01/08 20:11:57;;;;;;;28.42;6.90;;;7.20;90.20;;;;;;5110324;28;20465;-48
2022/01/08 20:14:24;;;;;;;24.00;5.88;;;7.10;88.20;;;;;;5110164;28;20441;-47
2022/01/08 20:16:51;;;;;;;23.38;6.05;;;7.10;89.20;;;;;;5109801;28;20039;-47
2022/01/08 20:19:18;;;;;;;23.23;5.68;;;7.10;90.00;;;;;;5110048;28;20043;-48
2022/01/08 20:21:44;;;;;;;24.48;5.55;;;7.10;88.40;;;;;;5108639;28;20422;-46
2022/01/08 20:24:11;;;;;;;17.98;4.47;;;7.00;86.50;;;;;;5109702;28;20032;-48
2022/01/08 20:26:38;;;;;;;20.10;4.88;;;7.00;86.20;;;;;;5109282;28;20044;-48
2022/01/08 20:29:05;;;;;;;25.85;4.40;;;7.00;85.20;;;;;;5112526;28;20051;-49
2022/01/08 20:31:32;;;;;;;24.67;4.60;;;7.00;84.50;;;;;;5109750;28;20097;-48
2022/01/08 20:33:58;;;;;;;16.55;4.43;;;7.00;85.10;;;;;;5109684;28;20089;-49
2022/01/08 20:36:25;;;;;;;19.30;3.95;;;7.00;85.20;;;;;;5109507;28;20514;-49
2022/01/08 20:38:52;;;;;;;15.38;3.70;;;6.90;85.90;;;;;;5097104;28;20044;-47
2022/01/08 20:41:19;;;;;;;12.60;3.83;;;6.90;85.10;;;;;;5096024;28;20040;-48
2022/01/08 20:43:46;;;;;;;21.33;4.15;;;6.90;84.20;;;;;;5096136;28;20040;-51
2022/01/08 20:46:16;;;;;;;18.23;4.15;;;6.90;84.90;;;;;;5095848;28;20040;-49
2022/01/08 20:48:43;;;;;;;17.80;4.63;;;6.80;84.90;;;;;;5095932;28;20046;-46
2022/01/08 20:51:10;;;;;;;14.32;3.13;;;6.70;86.50;;;;;;5095640;28;20043;-48
2022/01/08 20:53:37;;;;;;;18.98;4.43;;;6.60;86.10;;;;;;5095632;28;20440;-51
2022/01/08 20:56:04;;;;;;;18.20;4.65;;;6.60;85.90;;;;;;5098418;28;20040;-51
2022/01/08 20:58:30;;;;;;;11.30;3.42;;;6.50;87.60;;;;;;5095534;28;20131;-46
2022/01/08 21:00:57;;;;;;;14.13;2.72;;;6.40;86.60;;;;;;5095605;28;20090;-47
2022/01/08 21:03:24;;;;;;;15.13;3.05;;;6.30;85.60;;;;;;5095353;28;20441;-49
2022/01/08 21:05:51;;;;;;;10.57;3.13;;;6.20;86.70;;;;;;5095298;28;20149;-49
2022/01/08 21:08:18;;;;;;;13.18;3.25;;;6.20;86.00;;;;;;5095264;28;20051;-48
2022/01/08 21:10:47;;;;;;;11.15;2.50;;;6.10;86.30;;;;;;5093822;28;20044;-46
2022/01/08 21:13:14;;;;;;;12.13;3.33;;;6.00;87.30;;;;;;5095273;28;20098;-46
2022/01/08 21:15:41;;;;;;;9.65;3.20;;;6.00;86.90;;;;;;5095312;28;20043;-51
2022/01/08 21:18:08;;;;;;;10.30;2.63;;;6.00;86.70;;;;;;5094857;28;20136;-51
2022/01/08 21:20:35;;;;;;;14.10;3.25;;;5.90;85.50;;;;;;5093999;28;20044;-50
2022/01/08 21:23:01;;;;;;;10.68;2.90;;;5.90;86.50;;;;;;5088413;28;20036;-55
2022/01/08 21:25:28;;;;;;;11.43;2.90;;;5.90;86.00;;;;;;5095573;28;20376;-49
2022/01/08 21:27:55;;;;;;;8.82;2.92;;;5.80;86.50;;;;;;5098348;28;20066;-46
2022/01/08 21:30:22;;;;;;;10.32;2.47;;;5.80;86.20;;;;;;5094905;28;20041;-49
2022/01/08 21:32:49;;;;;;;11.50;2.03;;;5.80;86.80;;;;;;5094959;28;20202;-48
2022/01/08 21:35:15;;;;;;;9.73;2.67;;;5.70;86.70;;;;;;5094838;28;20051;-46
2022/01/08 21:37:51;;;;;;;8.63;2.15;;;5.70;87.00;;;;;;5093401;28;20044;-50
2022/01/08 21:40:18;;;;;;;8.70;2.40;;;5.60;87.50;;;;;;5094792;28;20048;-52
2022/01/08 21:42:45;;;;;;;13.45;3.40;;;5.60;87.80;;;;;;5094782;28;20055;-48
2022/01/08 21:45:12;;;;;;;14.00;2.75;;;5.60;88.50;;;;;;5086642;28;20105;-47
2022/01/08 21:47:41;;;;;;;13.70;2.75;;;5.60;88.60;;;;;;5094267;28;20044;-48
2022/01/08 21:50:08;;;;;;;11.50;2.72;;;5.50;88.70;;;;;;5087010;28;20540;-49
2022/01/08 21:52:35;;;;;;;10.82;2.40;;;5.50;89.00;;;;;;5087683;28;20033;-45
2022/01/08 21:55:02;;;;;;;12.18;3.28;;;5.40;88.90;;;;;;5094004;28;20111;-47
2022/01/08 21:57:28;;;;;;;11.27;2.75;;;5.40;89.40;;;;;;5094944;28;20040;-46
2022/01/08 21:59:58;;;;;;;12.43;3.70;;;5.40;89.50;;;;;;5096804;28;20465;-51
2022/01/08 22:02:25;;;;;;;12.85;3.20;;;5.30;89.30;;;;;;5094169;28;20035;-49
2022/01/08 22:04:52;;;;;;;10.23;2.65;;;5.30;89.70;;;;;;5094661;28;20059;-47
2022/01/08 22:07:19;;;;;;;10.75;2.70;;;5.30;89.50;;;;;;5094131;28;20050;-48
2022/01/08 22:09:46;;;;;;;15.43;2.78;;;5.30;88.80;;;;;;5092816;28;20047;-50
2022/01/08 22:12:15;;;;;;;12.35;2.80;;;5.20;89.30;;;;;;5094122;28;20040;-47
2022/01/08 22:14:42;;;;;;;14.77;3.03;;;5.20;88.40;;;;;;5094068;28;20036;-49
2022/01/08 22:17:10;;;;;;;12.75;2.92;;;5.20;88.00;;;;;;5093816;28;20491;-47
2022/01/08 22:19:37;;;;;;;10.75;2.75;;;5.20;87.90;;;;;;5094007;28;20063;-53
2022/01/08 22:22:03;;;;;;;11.60;3.38;;;5.20;86.80;;;;;;5093886;28;20082;-49
2022/01/08 22:24:30;;;;;;;14.25;3.10;;;5.20;88.10;;;;;;5093728;28;20499;-52
2022/01/08 22:26:57;;;;;;;12.90;2.63;;;5.10;87.10;;;;;;5093549;28;20048;-48
2022/01/08 22:29:24;;;;;;;13.77;2.63;;;5.10;86.80;;;;;;5093661;28;20036;-49
2022/01/08 22:31:50;;;;;;;14.77;2.53;;;5.10;85.70;;;;;;5093670;28;20044;-53
2022/01/08 22:34:18;;;;;;;12.48;2.70;;;5.10;86.10;;;;;;5093557;28;20502;-49
2022/01/08 22:36:45;;;;;;;12.45;2.58;;;5.10;86.70;;;;;;5093870;28;20135;-51
2022/01/08 22:39:13;;;;;;;12.75;2.63;;;5.00;86.40;;;;;;5093684;28;20043;-47
2022/01/08 22:41:40;;;;;;;13.55;2.92;;;5.00;86.80;;;;;;5093575;28;20120;-50
2022/01/08 22:44:07;;;;;;;11.50;2.55;;;5.00;86.90;;;;;;5095737;28;20368;-51
2022/01/08 22:46:34;;;;;;;18.88;3.17;;;5.00;86.60;;;;;;5093249;28;20044;-46
2022/01/08 22:49:00;;;;;;;15.93;3.50;;;4.90;86.20;;;;;;5096883;28;20036;-51
